createdAt,value
2017-12-19T00:01:12.917Z,21.70
2017-12-19T00:03:41.270Z,21.80
2017-12-19T00:06:08.881Z,21.70
2017-12-19T00:08:36.436Z,21.80
2017-12-19T00:11:04.037Z,21.70
2017-12-19T00:13:31.629Z,21.80
2017-12-19T00:15:59.200Z,21.70
2017-12-19T00:18:27.557Z,21.80
2017-12-19T00:20:56.806Z,21.80
2017-12-19T00:23:24.372Z,21.70
2017-12-19T00:25:51.951Z,21.80
2017-12-19T00:28:19.559Z,21.70
2017-12-19T00:30:47.879Z,21.80
2017-12-19T00:33:15.445Z,21.70
2017-12-19T00:35:43.299Z,21.70
2017-12-19T00:38:10.850Z,21.80
2017-12-19T00:40:38.439Z,21.70
2017-12-19T00:43:06.071Z,21.70
2017-12-19T00:45:33.616Z,21.70
2017-12-19T00:48:01.205Z,21.70
2017-12-19T00:50:28.771Z,21.70
2017-12-19T00:52:56.424Z,21.70
2017-12-19T00:55:23.989Z,21.70
2017-12-19T00:57:51.560Z,21.70
2017-12-19T01:00:19.344Z,21.70
2017-12-19T01:02:46.924Z,21.70
2017-12-19T01:05:14.524Z,21.70
2017-12-19T01:07:42.115Z,21.70
2017-12-19T01:10:09.682Z,21.70
2017-12-19T01:12:37.257Z,21.60
2017-12-19T01:15:05.637Z,21.60
2017-12-19T01:17:33.279Z,21.60
2017-12-19T01:20:00.926Z,21.60
2017-12-19T01:22:28.473Z,21.60
2017-12-19T01:24:56.027Z,21.60
2017-12-19T01:27:23.627Z,21.70
2017-12-19T01:29:51.187Z,21.70
2017-12-19T01:32:18.733Z,21.60
2017-12-19T01:34:46.466Z,21.70
2017-12-19T01:37:14.016Z,21.70
2017-12-19T01:39:41.823Z,21.70
2017-12-19T01:42:09.378Z,21.70
2017-12-19T01:44:36.967Z,21.70
2017-12-19T01:47:05.330Z,21.70
2017-12-19T01:49:32.906Z,21.70
2017-12-19T01:52:01.223Z,21.70
2017-12-19T01:54:28.823Z,21.70
2017-12-19T01:56:56.401Z,21.60
2017-12-19T01:59:24.702Z,21.60
2017-12-19T02:01:53.043Z,21.70
2017-12-19T02:04:20.600Z,21.60
2017-12-19T02:06:48.251Z,21.60
2017-12-19T02:09:15.807Z,21.60
2017-12-19T02:11:43.375Z,21.60
2017-12-19T02:14:10.963Z,21.60
2017-12-19T02:16:42.056Z,21.60
2017-12-19T02:19:09.633Z,21.60
2017-12-19T02:21:37.356Z,21.60
2017-12-19T02:24:04.922Z,21.60
2017-12-19T02:26:32.515Z,21.60
2017-12-19T02:29:00.071Z,21.60
2017-12-19T02:31:27.639Z,21.60
2017-12-19T02:33:55.229Z,21.60
2017-12-19T02:36:22.901Z,21.60
2017-12-19T02:38:50.485Z,21.60
2017-12-19T02:41:18.021Z,21.60
2017-12-19T02:43:45.683Z,21.60
2017-12-19T02:46:14.019Z,21.60
2017-12-19T02:48:41.605Z,21.60
2017-12-19T02:51:09.921Z,21.60
2017-12-19T02:53:37.660Z,21.60
2017-12-19T02:56:05.203Z,21.60
2017-12-19T02:58:33.557Z,21.60
2017-12-19T03:01:01.145Z,21.60
2017-12-19T03:03:29.476Z,21.60
2017-12-19T03:05:57.156Z,21.50
2017-12-19T03:08:25.459Z,21.60
2017-12-19T03:10:53.793Z,21.60
2017-12-19T03:13:21.377Z,21.60
2017-12-19T03:15:48.977Z,21.60
2017-12-19T03:18:16.586Z,21.60
2017-12-19T03:20:44.141Z,21.60
2017-12-19T03:23:11.842Z,21.60
2017-12-19T03:25:40.255Z,21.60
2017-12-19T03:28:08.021Z,21.60
2017-12-19T03:30:35.586Z,21.60
2017-12-19T03:33:03.169Z,21.60
2017-12-19T03:35:30.754Z,21.60
2017-12-19T03:37:59.121Z,21.60
2017-12-19T03:40:26.693Z,21.60
2017-12-19T03:42:55.004Z,21.60
2017-12-19T03:45:22.571Z,21.60
2017-12-19T03:47:50.299Z,21.60
2017-12-19T03:50:18.651Z,21.60
2017-12-19T03:52:46.225Z,21.60
2017-12-19T03:55:13.788Z,21.50
2017-12-19T03:57:41.389Z,21.60
2017-12-19T04:00:09.117Z,21.50
2017-12-19T04:02:37.487Z,21.60
2017-12-19T04:05:05.842Z,21.60
2017-12-19T04:07:33.388Z,21.50
2017-12-19T04:10:00.965Z,21.60
2017-12-19T04:12:28.514Z,21.60
2017-12-19T04:14:56.252Z,21.60
2017-12-19T04:17:23.845Z,21.60
2017-12-19T04:19:51.408Z,21.60
2017-12-19T04:22:18.969Z,21.50
2017-12-19T04:24:47.405Z,21.50
2017-12-19T04:27:15.014Z,21.50
2017-12-19T04:29:42.606Z,21.60
2017-12-19T04:32:10.912Z,21.60
2017-12-19T04:34:38.507Z,21.60
2017-12-19T04:37:06.045Z,21.60
2017-12-19T04:39:33.686Z,21.60
2017-12-19T04:42:01.264Z,21.60
2017-12-19T04:44:29.033Z,21.60
2017-12-19T04:46:56.568Z,21.50
2017-12-19T04:49:24.123Z,21.60
2017-12-19T04:51:51.721Z,21.60
2017-12-19T04:54:19.372Z,21.60
2017-12-19T04:56:46.962Z,21.60
2017-12-19T04:59:14.501Z,21.60
2017-12-19T05:01:42.116Z,21.60
2017-12-19T05:04:09.691Z,21.50
2017-12-19T05:06:37.268Z,21.60
2017-12-19T05:09:04.833Z,21.50
2017-12-19T05:11:32.468Z,21.50
2017-12-19T05:14:00.048Z,21.60
2017-12-19T05:16:27.619Z,21.50
2017-12-19T05:18:56.100Z,21.50
2017-12-19T05:21:23.764Z,21.50
2017-12-19T05:23:51.344Z,21.50
2017-12-19T05:26:19.681Z,21.60
2017-12-19T05:28:47.247Z,21.50
2017-12-19T05:31:14.963Z,21.50
2017-12-19T05:33:42.552Z,21.50
2017-12-19T05:36:10.120Z,21.60
2017-12-19T05:38:37.692Z,21.50
2017-12-19T05:41:05.258Z,21.50
2017-12-19T05:43:32.860Z,21.60
2017-12-19T05:46:01.334Z,21.60
2017-12-19T05:48:28.873Z,21.50
2017-12-19T05:50:56.455Z,21.60
2017-12-19T05:53:24.793Z,21.50
2017-12-19T05:55:52.396Z,21.50
2017-12-19T05:58:20.726Z,21.50
2017-12-19T06:00:48.327Z,21.50
2017-12-19T06:03:16.697Z,21.60
2017-12-19T06:05:44.310Z,21.50
2017-12-19T06:08:11.886Z,21.60
2017-12-19T06:10:39.468Z,21.60
2017-12-19T06:13:07.086Z,21.60
2017-12-19T06:15:34.640Z,21.60
2017-12-19T06:18:02.214Z,21.60
2017-12-19T06:20:29.924Z,21.60
2017-12-19T06:22:57.468Z,21.60
2017-12-19T06:25:25.068Z,21.60
2017-12-19T06:27:52.625Z,21.70
2017-12-19T06:30:20.974Z,21.60
2017-12-19T06:32:48.584Z,21.60
2017-12-19T06:35:16.149Z,21.60
2017-12-19T06:37:43.721Z,21.60
2017-12-19T06:40:11.351Z,21.60
2017-12-19T06:42:38.948Z,21.60
2017-12-19T06:45:06.556Z,21.60
2017-12-19T06:47:34.162Z,21.60
2017-12-19T06:50:01.722Z,21.60
2017-12-19T06:52:29.471Z,21.60
2017-12-19T06:54:57.052Z,21.60
2017-12-19T06:57:24.628Z,21.60
2017-12-19T06:59:52.228Z,21.60
2017-12-19T07:02:19.927Z,21.60
2017-12-19T07:04:47.490Z,21.70
2017-12-19T07:07:15.067Z,21.70
2017-12-19T07:09:42.641Z,21.80
2017-12-19T07:12:10.196Z,21.80
2017-12-19T07:14:38.535Z,21.80
2017-12-19T07:17:06.160Z,21.80
2017-12-19T07:19:34.569Z,21.80
2017-12-19T07:22:02.133Z,21.80
2017-12-19T07:24:29.690Z,21.70
2017-12-19T07:26:57.332Z,21.70
2017-12-19T07:29:24.990Z,21.70
2017-12-19T07:31:53.318Z,21.60
2017-12-19T07:34:20.875Z,21.60
2017-12-19T07:36:48.466Z,21.60
2017-12-19T07:39:16.908Z,21.50
2017-12-19T07:41:44.454Z,21.50
2017-12-19T07:44:12.215Z,21.50
2017-12-19T07:46:39.761Z,21.50
2017-12-19T07:49:07.331Z,21.50
2017-12-19T07:51:34.936Z,21.50
2017-12-19T07:54:02.477Z,21.50
2017-12-19T07:56:30.233Z,21.50
2017-12-19T07:58:57.791Z,21.40
2017-12-19T08:01:25.690Z,21.50
2017-12-19T08:03:53.241Z,21.40
2017-12-19T08:06:20.863Z,21.40
2017-12-19T08:08:48.462Z,21.40
2017-12-19T08:11:16.047Z,21.40
2017-12-19T08:13:44.545Z,21.40
2017-12-19T08:16:12.087Z,21.40
2017-12-19T08:18:40.422Z,21.50
2017-12-19T08:21:08.075Z,21.50
2017-12-19T08:23:35.645Z,21.50
2017-12-19T08:26:03.221Z,21.50
2017-12-19T08:28:30.787Z,21.50
2017-12-19T08:30:58.357Z,21.50
2017-12-19T08:33:26.673Z,21.50
2017-12-19T08:35:54.265Z,21.50
2017-12-19T08:38:21.842Z,21.50
2017-12-19T08:40:49.443Z,21.50
2017-12-19T08:43:16.991Z,21.50
2017-12-19T08:45:45.331Z,21.50
2017-12-19T08:48:13.304Z,21.50
2017-12-19T08:50:40.861Z,21.50
2017-12-19T08:53:08.417Z,21.50
2017-12-19T08:55:36.069Z,21.50
2017-12-19T08:58:03.653Z,21.50
2017-12-19T09:00:31.225Z,21.50
2017-12-19T09:02:59.559Z,21.50
2017-12-19T09:05:27.103Z,21.50
2017-12-19T09:07:54.655Z,21.50
2017-12-19T09:10:22.340Z,21.50
2017-12-19T09:12:49.979Z,21.50
2017-12-19T09:15:17.571Z,21.50
2017-12-19T09:17:45.125Z,21.50
2017-12-19T09:20:12.701Z,21.50
2017-12-19T09:22:40.257Z,21.50
2017-12-19T09:25:07.839Z,21.50
2017-12-19T09:27:36.171Z,21.50
2017-12-19T09:30:03.894Z,21.50
2017-12-19T09:32:32.211Z,21.50
2017-12-19T09:34:59.941Z,21.50
2017-12-19T09:37:27.525Z,21.60
2017-12-19T09:39:55.383Z,21.60
2017-12-19T09:42:22.976Z,21.60
2017-12-19T09:44:50.544Z,21.60
2017-12-19T09:47:18.094Z,21.70
2017-12-19T09:49:45.705Z,21.70
2017-12-19T09:52:13.265Z,21.70
2017-12-19T09:54:40.841Z,21.70
2017-12-19T09:57:08.384Z,21.70
2017-12-19T09:59:36.012Z,21.70
2017-12-19T10:02:03.557Z,21.70
2017-12-19T10:04:31.141Z,21.80
2017-12-19T10:06:58.733Z,21.80
2017-12-19T10:09:26.282Z,21.80
2017-12-19T10:11:54.051Z,21.90
2017-12-19T10:14:21.597Z,21.90
2017-12-19T10:16:49.947Z,21.80
2017-12-19T10:19:17.505Z,21.80
2017-12-19T10:21:45.835Z,21.80
2017-12-19T10:24:13.407Z,21.80
2017-12-19T10:26:40.963Z,21.80
2017-12-19T10:29:08.564Z,21.80
2017-12-19T10:31:36.165Z,21.80
2017-12-19T10:34:03.742Z,21.80
2017-12-19T10:36:31.313Z,21.80
2017-12-19T10:38:59.743Z,21.80
2017-12-19T10:41:28.091Z,21.80
2017-12-19T10:43:55.615Z,21.90
2017-12-19T10:46:23.389Z,21.90
2017-12-19T10:48:50.981Z,21.90
2017-12-19T10:51:20.065Z,21.90
2017-12-19T10:53:47.637Z,21.90
2017-12-19T10:56:15.446Z,21.90
2017-12-19T10:58:43.037Z,21.90
2017-12-19T11:01:10.599Z,21.90
2017-12-19T11:03:38.184Z,21.90
2017-12-19T11:06:06.066Z,21.90
2017-12-19T11:08:33.673Z,21.90
2017-12-19T11:11:01.242Z,21.90
2017-12-19T11:13:28.800Z,21.90
2017-12-19T11:15:56.555Z,21.90
2017-12-19T11:18:24.215Z,21.80
2017-12-19T11:20:51.981Z,21.90
2017-12-19T11:23:19.617Z,21.80
2017-12-19T11:25:47.909Z,21.80
2017-12-19T11:28:15.529Z,21.80
2017-12-19T11:30:43.114Z,21.80
2017-12-19T11:33:10.690Z,21.80
2017-12-19T11:35:38.262Z,21.80
2017-12-19T11:38:05.830Z,21.80
2017-12-19T11:40:33.413Z,21.80
2017-12-19T11:43:01.006Z,21.80
2017-12-19T11:45:29.391Z,21.90
2017-12-19T11:47:56.936Z,21.90
2017-12-19T11:50:25.258Z,21.90
2017-12-19T11:52:52.838Z,21.90
2017-12-19T11:55:20.455Z,21.90
2017-12-19T11:57:48.016Z,21.90
2017-12-19T12:00:15.846Z,21.90
2017-12-19T12:02:43.539Z,22.00
2017-12-19T12:05:11.082Z,22.00
2017-12-19T12:07:39.414Z,21.90
2017-12-19T12:10:06.996Z,21.90
2017-12-19T12:12:34.554Z,22.00
2017-12-19T12:15:02.899Z,21.90
2017-12-19T12:17:30.507Z,21.90
2017-12-19T12:19:58.076Z,21.90
2017-12-19T12:22:26.386Z,21.90
2017-12-19T12:24:53.995Z,21.90
2017-12-19T12:27:21.590Z,21.90
2017-12-19T12:29:49.136Z,21.90
2017-12-19T12:32:17.494Z,21.90
2017-12-19T12:34:46.073Z,21.90
2017-12-19T12:37:13.662Z,21.90
2017-12-19T12:39:41.222Z,21.90
2017-12-19T12:42:09.542Z,21.90
2017-12-19T12:44:37.352Z,21.90
2017-12-19T12:47:05.843Z,21.90
2017-12-19T12:49:34.197Z,22.00
2017-12-19T12:52:01.770Z,21.90
2017-12-19T12:54:30.134Z,21.90
2017-12-19T12:56:57.768Z,21.90
2017-12-19T12:59:25.378Z,21.90
2017-12-19T13:01:53.696Z,22.00
2017-12-19T13:04:21.298Z,22.00
2017-12-19T13:06:48.968Z,22.00
2017-12-19T13:09:16.620Z,22.00
2017-12-19T13:11:44.178Z,22.00
2017-12-19T13:14:11.746Z,22.00
2017-12-19T13:16:40.081Z,22.00
2017-12-19T13:19:07.864Z,22.00
2017-12-19T13:21:35.439Z,22.00
2017-12-19T13:24:03.804Z,22.00
2017-12-19T13:26:31.359Z,22.00
2017-12-19T13:28:58.946Z,22.00
2017-12-19T13:31:27.594Z,22.00
2017-12-19T13:33:55.268Z,22.00
2017-12-19T13:36:22.838Z,22.00
2017-12-19T13:38:50.404Z,22.00
2017-12-19T13:41:18.009Z,22.00
2017-12-19T13:43:45.699Z,22.00
2017-12-19T13:46:13.286Z,22.00
2017-12-19T13:48:40.836Z,22.00
2017-12-19T13:51:08.416Z,22.00
2017-12-19T13:53:36.778Z,22.00
2017-12-19T13:56:05.846Z,22.00
2017-12-19T13:58:33.415Z,22.00
2017-12-19T14:01:00.987Z,22.00
2017-12-19T14:03:29.422Z,22.00
2017-12-19T14:05:57.024Z,21.90
2017-12-19T14:08:24.602Z,22.00
2017-12-19T14:10:52.207Z,22.00
2017-12-19T14:13:19.821Z,22.00
2017-12-19T14:15:47.386Z,21.90
2017-12-19T14:18:14.959Z,21.90
2017-12-19T14:20:43.307Z,21.90
2017-12-19T14:23:10.847Z,21.90
2017-12-19T14:25:38.419Z,21.90
2017-12-19T14:28:06.092Z,21.90
2017-12-19T14:30:33.675Z,21.90
2017-12-19T14:33:02.009Z,21.90
2017-12-19T14:35:29.605Z,21.90
2017-12-19T14:37:57.935Z,21.90
2017-12-19T14:40:25.547Z,21.90
2017-12-19T14:42:53.879Z,21.90
2017-12-19T14:45:21.472Z,21.90
2017-12-19T14:47:49.047Z,21.90
2017-12-19T14:50:17.432Z,21.90
2017-12-19T14:52:45.761Z,21.90
2017-12-19T14:55:13.341Z,21.90
2017-12-19T14:57:40.938Z,21.90
2017-12-19T15:00:09.265Z,21.90
2017-12-19T15:02:36.869Z,21.90
2017-12-19T15:05:05.209Z,21.90
2017-12-19T15:07:32.818Z,21.90
2017-12-19T15:10:00.350Z,21.90
2017-12-19T15:12:27.919Z,21.90
2017-12-19T15:14:56.307Z,21.90
2017-12-19T15:17:23.863Z,21.90
2017-12-19T15:19:52.225Z,21.90
2017-12-19T15:22:19.801Z,21.90
2017-12-19T15:24:48.197Z,21.90
2017-12-19T15:27:15.867Z,21.90
2017-12-19T15:29:43.429Z,21.90
2017-12-19T15:32:11.008Z,21.90
2017-12-19T15:34:38.569Z,21.90
2017-12-19T15:37:06.149Z,21.90
2017-12-19T15:39:33.706Z,21.90
2017-12-19T15:42:01.445Z,21.90
2017-12-19T15:44:29.013Z,21.90
2017-12-19T15:46:56.649Z,21.90
2017-12-19T15:49:24.249Z,21.90
2017-12-19T15:51:51.825Z,21.90
2017-12-19T15:54:19.404Z,21.90
2017-12-19T15:56:47.725Z,21.90
2017-12-19T15:59:15.315Z,21.90
2017-12-19T16:01:42.863Z,21.90
2017-12-19T16:04:10.446Z,22.00
2017-12-19T16:06:38.783Z,22.10
2017-12-19T16:09:08.885Z,22.00
2017-12-19T16:11:36.531Z,22.10
2017-12-19T16:14:04.117Z,22.20
2017-12-19T16:16:31.674Z,22.20
2017-12-19T16:18:59.255Z,22.20
2017-12-19T16:21:26.804Z,22.30
2017-12-19T16:23:54.405Z,22.30
2017-12-19T16:26:22.787Z,22.30
2017-12-19T16:28:51.153Z,22.30
2017-12-19T16:31:18.727Z,22.30
2017-12-19T16:33:47.081Z,22.40
2017-12-19T16:36:14.708Z,22.40
2017-12-19T16:38:42.361Z,22.40
2017-12-19T16:41:09.947Z,22.40
2017-12-19T16:43:37.534Z,22.40
2017-12-19T16:46:05.100Z,22.40
2017-12-19T16:48:33.620Z,22.50
2017-12-19T16:51:01.273Z,22.40
2017-12-19T16:53:28.809Z,22.50
2017-12-19T16:55:57.147Z,22.50
2017-12-19T16:58:24.745Z,22.50
2017-12-19T17:00:53.199Z,22.50
2017-12-19T17:03:20.928Z,22.50
2017-12-19T17:05:48.485Z,22.50
2017-12-19T17:08:16.096Z,22.50
2017-12-19T17:10:43.618Z,22.50
2017-12-19T17:13:11.276Z,22.50
2017-12-19T17:15:39.028Z,22.50
2017-12-19T17:18:06.594Z,22.50
2017-12-19T17:20:34.194Z,22.50
2017-12-19T17:23:01.765Z,22.50
2017-12-19T17:25:30.194Z,22.50
2017-12-19T17:27:57.768Z,22.50
2017-12-19T17:30:25.433Z,22.50
2017-12-19T17:32:53.100Z,22.50
2017-12-19T17:35:20.697Z,22.50
2017-12-19T17:37:49.008Z,22.50
2017-12-19T17:40:16.590Z,22.50
2017-12-19T17:42:44.234Z,22.50
2017-12-19T17:45:12.585Z,22.40
2017-12-19T17:47:40.888Z,22.40
2017-12-19T17:50:08.563Z,22.40
2017-12-19T17:52:36.166Z,22.30
2017-12-19T17:55:03.830Z,22.30
2017-12-19T17:57:32.210Z,22.30
2017-12-19T18:00:00.549Z,22.30
2017-12-19T18:02:28.102Z,22.30
2017-12-19T18:04:55.702Z,22.30
2017-12-19T18:07:24.083Z,22.30
2017-12-19T18:09:52.448Z,22.30
2017-12-19T18:12:20.016Z,22.30
2017-12-19T18:14:47.612Z,22.30
2017-12-19T18:17:15.283Z,22.20
2017-12-19T18:19:42.889Z,22.20
2017-12-19T18:22:10.446Z,22.20
2017-12-19T18:24:38.044Z,22.20
2017-12-19T18:27:05.674Z,22.20
2017-12-19T18:29:33.252Z,22.20
2017-12-19T18:32:01.784Z,22.20
2017-12-19T18:34:29.382Z,22.20
2017-12-19T18:36:56.952Z,22.20
2017-12-19T18:39:25.572Z,22.20
2017-12-19T18:41:53.130Z,22.20
2017-12-19T18:44:20.738Z,22.10
2017-12-19T18:46:48.292Z,22.20
2017-12-19T18:49:15.856Z,22.20
2017-12-19T18:51:43.624Z,22.20
2017-12-19T18:54:12.040Z,22.20
2017-12-19T18:56:39.636Z,22.10
2017-12-19T18:59:07.210Z,22.20
2017-12-19T19:01:34.886Z,22.20
2017-12-19T19:04:02.458Z,22.20
2017-12-19T19:06:30.830Z,22.10
2017-12-19T19:08:58.420Z,22.10
2017-12-19T19:11:25.995Z,22.10
2017-12-19T19:13:53.768Z,22.10
2017-12-19T19:16:21.383Z,22.10
2017-12-19T19:18:49.823Z,22.10
2017-12-19T19:21:17.460Z,22.10
2017-12-19T19:23:45.153Z,22.10
2017-12-19T19:26:12.734Z,22.10
2017-12-19T19:28:41.090Z,22.10
2017-12-19T19:31:08.728Z,22.10
2017-12-19T19:33:36.288Z,22.10
2017-12-19T19:36:03.840Z,22.10
2017-12-19T19:38:31.480Z,22.10
2017-12-19T19:40:59.076Z,22.10
2017-12-19T19:43:26.702Z,22.10
2017-12-19T19:45:55.062Z,22.10
2017-12-19T19:48:23.396Z,22.10
2017-12-19T19:50:51.064Z,22.00
2017-12-19T19:53:18.642Z,22.10
2017-12-19T19:55:46.306Z,22.10
2017-12-19T19:58:13.893Z,22.10
2017-12-19T20:00:42.268Z,22.10
2017-12-19T20:03:10.675Z,22.10
2017-12-19T20:05:38.296Z,22.00
2017-12-19T20:08:05.868Z,22.10
2017-12-19T20:10:34.367Z,22.10
2017-12-19T20:13:01.980Z,22.10
2017-12-19T20:15:31.098Z,22.10
2017-12-19T20:17:59.510Z,22.10
2017-12-19T20:20:27.864Z,22.10
2017-12-19T20:22:56.357Z,22.10
2017-12-19T20:25:23.930Z,22.10
2017-12-19T20:27:51.599Z,22.00
2017-12-19T20:30:19.252Z,22.00
2017-12-19T20:32:46.941Z,22.00
2017-12-19T20:35:14.560Z,22.00
2017-12-19T20:37:42.928Z,22.00
2017-12-19T20:40:11.359Z,22.00
2017-12-19T20:42:39.173Z,22.00
2017-12-19T20:45:07.674Z,22.00
2017-12-19T20:47:35.296Z,22.00
2017-12-19T20:50:02.896Z,22.00
2017-12-19T20:52:30.526Z,22.00
2017-12-19T20:54:59.074Z,22.10
2017-12-19T20:57:26.661Z,22.00
2017-12-19T20:59:54.274Z,22.00
2017-12-19T21:02:22.036Z,22.00
2017-12-19T21:04:49.638Z,22.00
2017-12-19T21:07:17.253Z,22.00
2017-12-19T21:09:44.840Z,22.00
2017-12-19T21:12:12.558Z,22.00
2017-12-19T21:14:40.323Z,22.00
2017-12-19T21:17:08.726Z,22.00
2017-12-19T21:19:36.389Z,22.00
2017-12-19T21:22:04.005Z,22.00
2017-12-19T21:24:32.340Z,22.00
2017-12-19T21:27:00.864Z,22.00
2017-12-19T21:29:29.429Z,22.00
2017-12-19T21:31:57.034Z,22.00
2017-12-19T21:34:25.627Z,22.00
2017-12-19T21:36:53.212Z,22.00
2017-12-19T21:39:20.812Z,22.00
2017-12-19T21:41:48.406Z,22.00
2017-12-19T21:44:15.984Z,22.00
2017-12-19T21:46:43.642Z,22.00
2017-12-19T21:49:11.324Z,22.00
2017-12-19T21:51:39.092Z,22.00
2017-12-19T21:54:06.669Z,22.00
2017-12-19T21:56:34.244Z,22.00
2017-12-19T21:59:02.580Z,22.00
2017-12-19T22:01:30.150Z,22.00
2017-12-19T22:03:57.748Z,22.00
2017-12-19T22:06:26.062Z,22.00
2017-12-19T22:08:53.721Z,22.00
2017-12-19T22:11:21.541Z,22.00
2017-12-19T22:13:50.052Z,22.00
2017-12-19T22:16:17.654Z,22.00
2017-12-19T22:18:45.214Z,22.00
2017-12-19T22:21:12.824Z,22.00
2017-12-19T22:23:41.178Z,22.00
2017-12-19T22:26:08.760Z,21.90
2017-12-19T22:28:37.187Z,21.90
2017-12-19T22:31:04.868Z,21.90
2017-12-19T22:33:32.420Z,21.90
2017-12-19T22:36:00.041Z,21.90
2017-12-19T22:38:27.614Z,21.90
2017-12-19T22:40:55.230Z,21.90
2017-12-19T22:43:22.824Z,21.90
2017-12-19T22:45:50.492Z,21.90
2017-12-19T22:48:18.095Z,21.90
2017-12-19T22:50:45.649Z,21.90
2017-12-19T22:53:13.220Z,21.90
2017-12-19T22:55:40.936Z,21.90
2017-12-19T22:58:08.525Z,21.90
2017-12-19T23:00:36.118Z,21.90
2017-12-19T23:03:04.442Z,21.90
2017-12-19T23:05:32.805Z,21.90
2017-12-19T23:08:00.381Z,21.90
2017-12-19T23:10:27.999Z,21.90
2017-12-19T23:12:56.329Z,21.90
2017-12-19T23:15:23.859Z,21.90
2017-12-19T23:17:51.494Z,21.90
2017-12-19T23:20:19.818Z,21.90
2017-12-19T23:22:47.383Z,21.90
2017-12-19T23:25:15.811Z,21.90
2017-12-19T23:27:44.149Z,21.90
2017-12-19T23:30:11.834Z,21.90
2017-12-19T23:32:40.937Z,21.90
2017-12-19T23:35:08.492Z,21.90
2017-12-19T23:37:37.589Z,21.90
2017-12-19T23:40:05.178Z,21.90
2017-12-19T23:42:32.787Z,21.90
2017-12-19T23:45:00.356Z,21.90
2017-12-19T23:47:27.948Z,21.90
2017-12-19T23:49:56.289Z,21.90
2017-12-19T23:52:23.975Z,21.90
2017-12-19T23:54:51.615Z,21.90
2017-12-19T23:57:19.146Z,21.90
2017-12-19T23:59:46.750Z,21.90
